Terminal Aerodrome Forecast
Issued by NWS

Home | Current Version | Previous Version | Text Only | Print | Product List | Glossary On
Versions: 1 2 3 4 5 6 7 8 9 10 11 12 13 14 15 16 17 18 19 20 21 22
000
FTUS43 KAPX 290521
TAFAPN
TAF
KAPN 290521Z 2906/3006 16006KT 6SM -SN BR OVC050
     FM291400 17010KT 6SM BR OVC012
     FM300000 19008KT 6SM BR OVC012 WS020/22032KT=

USA.gov is the U.S. government's official web portal to all federal, state and local government web resources and services.